Airfield :
LOGIN :

Register | Disclaimer

   EN    FR    IT 

 










Legend :    VFR   Marginal VFR   IFR   Intensive IFR   Very Intensive IFR
Visi :
Ceiling :
>= 8 km
>= 3000ft
5 to 8 km
1000 to 3000 ft
1500m to 5 km
500 to 1000 ft
800 to 1500m
200 to 500 ft
< 800m
< 200 ft
Symbols :   Thunderstorms  Fog  Heavy snow  Heavy precipitations  Wind > 20 kt
SIGMETs :     Misc.  Thunderstorms  Icing  Turbulence  Mountain Waves  Volcanic Ashes






- Airport Elevation : 80 ft
- IATA code : LPL


EGGP - Liverpool John Lennon

CURRENT METAR :
  • 212250Z 03005KT 9999 BKN039 09/06 Q1032

EXPIRED METARs :
  • 212220Z 03006KT 9999 BKN038 09/06 Q1032
  • 212150Z 36006KT 9999 SCT040 10/07 Q1032
  • 212120Z 36007KT 9999 FEW040 10/07 Q1032
  • 212050Z 36005KT 320V030 CAVOK 10/06 Q1032
  • 212020Z 35007KT 9999 FEW043 10/06 Q1032
  • 211950Z 34006KT CAVOK 10/06 Q1032
  • 211920Z 33007KT 9999 FEW045 10/06 Q1032
  • 211850Z 33008KT 9999 BKN046 11/06 Q1031
  • 211820Z 34006KT 310V010 CAVOK 12/05 Q1031
  • 211750Z 35008KT 9999 FEW049 12/04 Q1031

TAF AMD TAF EGGP
Valid from the 21 at 18:00 until the 22 at 18:00 UTC


211829Z 2118/2218 03005KT 9999 SCT035
BECMG 2200/2203 BKN014
TEMPO 2203/2212 4500 RADZ BR BKN007
PROB30
TEMPO 2203/2212 2500 +RADZ BKN004
BECMG 2209/2212 29010KT
TEMPO 2212/2218 4000 -RADZ BKN004
ATIS : +44 151 907 2000 (option 5 or ext 5150)
Met : +44 871 750 5150



MET'MAP, your aeronautical weather chart ! - Copyright ORBIFLY December 2007 - Disclaimer

ORBIFLY MET'MAP TEAM :

Programming & Development : Alexandra Zaïnal
Original concept : Baudouin d'Aumeries
Technical & hardware support : Manuel Goepfert
Assistance : Marc-Olivier Méhu




SOURCES & CREDITS :

   NOAA